sensor_id;sensor_type;location;lat;lon;timestamp;pressure;altitude;pressure_sealevel;temperature;humidity
22031;BME280;11179;52.106;21.024;2024-02-15T00:01:51;101033.13;;;5.06;54.13
22031;BME280;11179;52.106;21.024;2024-02-15T00:04:16;101022.47;;;5.05;54.26
22031;BME280;11179;52.106;21.024;2024-02-15T00:06:43;101034.19;;;5.12;54.18
22031;BME280;11179;52.106;21.024;2024-02-15T00:09:08;101033.75;;;5.08;54.21
22031;BME280;11179;52.106;21.024;2024-02-15T00:11:33;101024.97;;;5.06;54.02
22031;BME280;11179;52.106;21.024;2024-02-15T00:13:59;101030.19;;;5.08;54.22
22031;BME280;11179;52.106;21.024;2024-02-15T00:16:25;101036.69;;;5.07;54.40
22031;BME280;11179;52.106;21.024;2024-02-15T00:18:52;101031.03;;;5.02;54.22
22031;BME280;11179;52.106;21.024;2024-02-15T00:21:20;101035.00;;;4.99;54.17
22031;BME280;11179;52.106;21.024;2024-02-15T00:23:45;101033.75;;;5.02;54.26
22031;BME280;11179;52.106;21.024;2024-02-15T00:26:11;101022.47;;;5.05;54.04
22031;BME280;11179;52.106;21.024;2024-02-15T00:28:37;101035.00;;;4.99;54.03
22031;BME280;11179;52.106;21.024;2024-02-15T00:31:02;101036.06;;;4.98;54.43
22031;BME280;11179;52.106;21.024;2024-02-15T00:33:29;101032.88;;;4.95;54.30
22031;BME280;11179;52.106;21.024;2024-02-15T00:35:54;101025.56;;;4.95;54.48
22031;BME280;11179;52.106;21.024;2024-02-15T00:38:19;101033.31;;;4.98;54.18
22031;BME280;11179;52.106;21.024;2024-02-15T00:40:45;101036.25;;;4.97;54.57
22031;BME280;11179;52.106;21.024;2024-02-15T00:43:11;101037.94;;;4.98;54.45
22031;BME280;11179;52.106;21.024;2024-02-15T00:45:36;101035.84;;;5.00;54.48
22031;BME280;11179;52.106;21.024;2024-02-15T00:48:01;101038.16;;;5.03;54.54
22031;BME280;11179;52.106;21.024;2024-02-15T00:50:27;101045.91;;;5.06;54.56
22031;BME280;11179;52.106;21.024;2024-02-15T00:52:52;101040.03;;;5.09;54.85
22031;BME280;11179;52.106;21.024;2024-02-15T00:55:19;101038.16;;;5.09;54.60
22031;BME280;11179;52.106;21.024;2024-02-15T00:57:45;101046.34;;;5.09;54.50
22031;BME280;11179;52.106;21.024;2024-02-15T01:00:11;101034.59;;;5.09;54.61
22031;BME280;11179;52.106;21.024;2024-02-15T01:02:36;101035.66;;;5.08;54.33
22031;BME280;11179;52.106;21.024;2024-02-15T01:05:02;101040.03;;;5.09;54.50
22031;BME280;11179;52.106;21.024;2024-02-15T01:07:27;101032.72;;;5.09;54.65
22031;BME280;11179;52.106;21.024;2024-02-15T01:09:53;101031.25;;;5.07;54.48
22031;BME280;11179;52.106;21.024;2024-02-15T01:12:18;101022.47;;;5.05;54.52
22031;BME280;11179;52.106;21.024;2024-02-15T01:14:44;101025.41;;;5.10;54.38
22031;BME280;11179;52.106;21.024;2024-02-15T01:17:10;101033.56;;;5.10;54.39
22031;BME280;11179;52.106;21.024;2024-02-15T01:19:35;101029.16;;;5.09;54.58
22031;BME280;11179;52.106;21.024;2024-02-15T01:22:00;101028.97;;;5.10;54.25
22031;BME280;11179;52.106;21.024;2024-02-15T01:24:26;101027.06;;;5.11;54.59
22031;BME280;11179;52.106;21.024;2024-02-15T01:26:52;101024.16;;;5.12;54.71
22031;BME280;11179;52.106;21.024;2024-02-15T01:29:18;101021.63;;;5.11;54.50
22031;BME280;11179;52.106;21.024;2024-02-15T01:31:43;101019.53;;;5.13;54.29
22031;BME280;11179;52.106;21.024;2024-02-15T01:34:10;101019.13;;;5.09;54.43
22031;BME280;11179;52.106;21.024;2024-02-15T01:36:35;101028.31;;;5.08;54.58
22031;BME280;11179;52.106;21.024;2024-02-15T01:39:00;101013.47;;;5.11;54.36
22031;BME280;11179;52.106;21.024;2024-02-15T01:41:26;101015.34;;;5.10;54.45
22031;BME280;11179;52.106;21.024;2024-02-15T01:43:51;101002.16;;;5.07;54.66
22031;BME280;11179;52.106;21.024;2024-02-15T01:46:18;101007.59;;;5.07;54.57
22031;BME280;11179;52.106;21.024;2024-02-15T01:48:45;101009.06;;;5.10;54.81
22031;BME280;11179;52.106;21.024;2024-02-15T01:51:12;101008.66;;;5.13;54.66
22031;BME280;11179;52.106;21.024;2024-02-15T01:53:41;101007.63;;;5.14;54.56
22031;BME280;11179;52.106;21.024;2024-02-15T01:56:07;101005.72;;;5.14;54.72
22031;BME280;11179;52.106;21.024;2024-02-15T01:58:33;100999.44;;;5.14;54.74
22031;BME280;11179;52.106;21.024;2024-02-15T02:01:00;101000.28;;;5.14;54.80
22031;BME280;11179;52.106;21.024;2024-02-15T02:03:26;101008.66;;;5.13;54.76
22031;BME280;11179;52.106;21.024;2024-02-15T02:05:52;100999.44;;;5.14;54.83
22031;BME280;11179;52.106;21.024;2024-02-15T02:08:18;100996.13;;;5.19;54.65
22031;BME280;11179;52.106;21.024;2024-02-15T02:10:43;100993.59;;;5.17;54.54
22031;BME280;11179;52.106;21.024;2024-02-15T02:13:10;101000.91;;;5.17;54.47
22031;BME280;11179;52.106;21.024;2024-02-15T02:15:36;101004.03;;;5.20;54.80
22031;BME280;11179;52.106;21.024;2024-02-15T02:18:03;100999.88;;;5.18;54.67
22031;BME280;11179;52.106;21.024;2024-02-15T02:20:31;100993.59;;;5.17;54.46
22031;BME280;11179;52.106;21.024;2024-02-15T02:23:03;100988.16;;;5.17;54.58
22031;BME280;11179;52.106;21.024;2024-02-15T02:25:33;100987.09;;;5.18;54.86
22031;BME280;11179;52.106;21.024;2024-02-15T02:27:59;100979.34;;;5.15;54.72
22031;BME280;11179;52.106;21.024;2024-02-15T02:30:25;100980.19;;;5.15;54.95
22031;BME280;11179;52.106;21.024;2024-02-15T02:32:55;100981.63;;;5.11;54.90
22031;BME280;11179;52.106;21.024;2024-02-15T02:35:20;100993.78;;;5.09;54.92
22031;BME280;11179;52.106;21.024;2024-02-15T02:37:45;101004.66;;;5.09;54.76
22031;BME280;11179;52.106;21.024;2024-02-15T02:40:11;101001.94;;;5.09;55.09
22031;BME280;11179;52.106;21.024;2024-02-15T02:43:07;100998.16;;;5.10;54.74
22031;BME280;11179;52.106;21.024;2024-02-15T02:45:32;100998.16;;;5.10;55.17
22031;BME280;11179;52.106;21.024;2024-02-15T02:47:58;101004.25;;;5.12;54.87
22031;BME280;11179;52.106;21.024;2024-02-15T02:50:24;100996.09;;;5.12;54.84
22031;BME280;11179;52.106;21.024;2024-02-15T02:52:49;100995.88;;;5.13;55.07
22031;BME280;11179;52.106;21.024;2024-02-15T02:55:15;100994.84;;;5.14;54.97
22031;BME280;11179;52.106;21.024;2024-02-15T02:57:41;100989.41;;;5.14;54.79
22031;BME280;11179;52.106;21.024;2024-02-15T03:00:12;100983.75;;;5.16;55.07
22031;BME280;11179;52.106;21.024;2024-02-15T03:02:42;100987.72;;;5.13;54.98
22031;BME280;11179;52.106;21.024;2024-02-15T03:05:08;100978.06;;;5.11;55.00
22031;BME280;11179;52.106;21.024;2024-02-15T03:07:35;100990.22;;;5.15;55.19
22031;BME280;11179;52.106;21.024;2024-02-15T03:10:04;100988.16;;;5.17;55.13
22031;BME280;11179;52.106;21.024;2024-02-15T03:12:32;100989.81;;;5.18;55.22
22031;BME280;11179;52.106;21.024;2024-02-15T03:15:00;100986.03;;;5.19;55.02
22031;BME280;11179;52.106;21.024;2024-02-15T03:17:27;100986.03;;;5.12;55.32
22031;BME280;11179;52.106;21.024;2024-02-15T03:19:52;100989.81;;;5.11;55.09
22031;BME280;11179;52.106;21.024;2024-02-15T03:22:17;100989.81;;;5.11;55.16
22031;BME280;11179;52.106;21.024;2024-02-15T03:24:43;100993.13;;;5.07;55.25
22031;BME280;11179;52.106;21.024;2024-02-15T03:27:09;100994.19;;;5.06;55.17
22031;BME280;11179;52.106;21.024;2024-02-15T03:29:37;100996.91;;;5.06;55.27
22031;BME280;11179;52.106;21.024;2024-02-15T03:32:03;100993.13;;;5.07;55.40
22031;BME280;11179;52.106;21.024;2024-02-15T03:34:30;101002.34;;;5.06;55.30
22031;BME280;11179;52.106;21.024;2024-02-15T03:36:56;101002.56;;;5.04;55.25
22031;BME280;11179;52.106;21.024;2024-02-15T03:39:21;100996.91;;;5.06;55.58
22031;BME280;11179;52.106;21.024;2024-02-15T03:41:49;100999.84;;;5.04;55.36
22031;BME280;11179;52.106;21.024;2024-02-15T03:44:14;100999.03;;;5.04;55.41
22031;BME280;11179;52.106;21.024;2024-02-15T03:46:40;101002.78;;;5.03;55.50
22031;BME280;11179;52.106;21.024;2024-02-15T03:49:05;101004.25;;;5.05;55.59
22031;BME280;11179;52.106;21.024;2024-02-15T03:51:31;101010.50;;;5.06;55.55
22031;BME280;11179;52.106;21.024;2024-02-15T03:53:57;100998.56;;;5.07;55.45
22031;BME280;11179;52.106;21.024;2024-02-15T03:56:23;100998.16;;;5.10;55.47
22031;BME280;11179;52.106;21.024;2024-02-15T03:58:49;101001.53;;;5.12;55.42
22031;BME280;11179;52.106;21.024;2024-02-15T04:01:17;100998.81;;;5.12;55.80
22031;BME280;11179;52.106;21.024;2024-02-15T04:03:42;100992.72;;;5.10;55.74
22031;BME280;11179;52.106;21.024;2024-02-15T04:06:08;100996.50;;;5.09;55.41
22031;BME280;11179;52.106;21.024;2024-02-15T04:08:35;100994.19;;;5.06;55.77
22031;BME280;11179;52.106;21.024;2024-02-15T04:11:05;100998.56;;;5.07;55.50
22031;BME280;11179;52.106;21.024;2024-02-15T04:13:32;100988.97;;;5.04;55.57
22031;BME280;11179;52.106;21.024;2024-02-15T04:15:57;100995.84;;;5.07;55.37
22031;BME280;11179;52.106;21.024;2024-02-15T04:18:23;100992.53;;;5.05;55.46
22031;BME280;11179;52.106;21.024;2024-02-15T04:20:48;100984.38;;;5.05;55.71
22031;BME280;11179;52.106;21.024;2024-02-15T04:23:14;100988.72;;;5.06;55.81
22031;BME280;11179;52.106;21.024;2024-02-15T04:25:39;100990.22;;;5.02;55.46
22031;BME280;11179;52.106;21.024;2024-02-15T04:28:06;100992.09;;;5.01;55.70
22031;BME280;11179;52.106;21.024;2024-02-15T04:30:31;100997.34;;;5.03;55.80
22031;BME280;11179;52.106;21.024;2024-02-15T04:32:57;100995.66;;;5.02;55.76
22031;BME280;11179;52.106;21.024;2024-02-15T04:35:23;100992.94;;;5.02;55.95
22031;BME280;11179;52.106;21.024;2024-02-15T04:37:50;101000.69;;;5.05;55.94
22031;BME280;11179;52.106;21.024;2024-02-15T04:40:16;100990.22;;;5.02;55.85
22031;BME280;11179;52.106;21.024;2024-02-15T04:42:43;100999.03;;;5.04;55.95
22031;BME280;11179;52.106;21.024;2024-02-15T04:45:10;100996.50;;;5.02;55.99
22031;BME280;11179;52.106;21.024;2024-02-15T04:47:36;101004.66;;;5.02;56.01
22031;BME280;11179;52.106;21.024;2024-02-15T04:50:02;101001.09;;;5.02;55.99
22031;BME280;11179;52.106;21.024;2024-02-15T04:52:28;101000.66;;;4.98;56.05
22031;BME280;11179;52.106;21.024;2024-02-15T04:54:54;101003.19;;;5.00;56.22
22031;BME280;11179;52.106;21.024;2024-02-15T04:57:20;101001.09;;;5.02;56.12
22031;BME280;11179;52.106;21.024;2024-02-15T04:59:45;101002.78;;;5.03;56.31
22031;BME280;11179;52.106;21.024;2024-02-15T05:02:13;101003.81;;;5.02;56.26
22031;BME280;11179;52.106;21.024;2024-02-15T05:04:39;101005.06;;;4.99;56.02
22031;BME280;11179;52.106;21.024;2024-02-15T05:07:07;101007.78;;;4.99;56.40
22031;BME280;11179;52.106;21.024;2024-02-15T05:09:33;101001.91;;;4.96;56.26
22031;BME280;11179;52.106;21.024;2024-02-15T05:12:01;101003.59;;;4.97;56.55
22031;BME280;11179;52.106;21.024;2024-02-15T05:14:28;101003.38;;;4.98;56.24
22031;BME280;11179;52.106;21.024;2024-02-15T05:16:53;100997.75;;;5.00;56.37
22031;BME280;11179;52.106;21.024;2024-02-15T05:19:19;100992.31;;;5.00;56.24
22031;BME280;11179;52.106;21.024;2024-02-15T05:21:45;100999.81;;;4.98;56.36
22031;BME280;11179;52.106;21.024;2024-02-15T05:24:15;100999.00;;;4.97;56.40
22031;BME280;11179;52.106;21.024;2024-02-15T05:26:41;101004.63;;;4.96;56.38
22031;BME280;11179;52.106;21.024;2024-02-15T05:29:12;100992.50;;;4.98;56.23
22031;BME280;11179;52.106;21.024;2024-02-15T05:31:37;100996.88;;;4.93;56.13
22031;BME280;11179;52.106;21.024;2024-02-15T05:34:04;100997.31;;;4.90;56.41
22031;BME280;11179;52.106;21.024;2024-02-15T05:36:30;100999.00;;;4.91;56.62
22031;BME280;11179;52.106;21.024;2024-02-15T05:38:56;101009.69;;;4.92;56.40
22031;BME280;11179;52.106;21.024;2024-02-15T05:41:22;101011.13;;;4.95;56.31
22031;BME280;11179;52.106;21.024;2024-02-15T05:43:48;101010.72;;;4.98;56.75
22031;BME280;11179;52.106;21.024;2024-02-15T05:46:14;101021.19;;;5.01;56.53
22031;BME280;11179;52.106;21.024;2024-02-15T05:48:40;101021.00;;;5.02;56.50
22031;BME280;11179;52.106;21.024;2024-02-15T05:51:07;101027.28;;;5.03;56.84
22031;BME280;11179;52.106;21.024;2024-02-15T05:53:36;101018.28;;;5.02;56.72
22031;BME280;11179;52.106;21.024;2024-02-15T05:56:02;101022.69;;;5.03;56.81
22031;BME280;11179;52.106;21.024;2024-02-15T05:58:30;101019.94;;;5.03;57.00
22031;BME280;11179;52.106;21.024;2024-02-15T06:00:55;101030.00;;;5.03;57.19
22031;BME280;11179;52.106;21.024;2024-02-15T06:03:26;101022.88;;;5.02;57.07
22031;BME280;11179;52.106;21.024;2024-02-15T06:05:51;101026.44;;;5.02;57.42
22031;BME280;11179;52.106;21.024;2024-02-15T06:08:17;101029.81;;;5.04;57.34
22031;BME280;11179;52.106;21.024;2024-02-15T06:10:43;101035.44;;;5.03;57.61
22031;BME280;11179;52.106;21.024;2024-02-15T06:13:08;101032.69;;;4.96;57.87
22031;BME280;11179;52.106;21.024;2024-02-15T06:15:36;101030.81;;;4.90;58.69
22031;BME280;11179;52.106;21.024;2024-02-15T06:18:02;101036.84;;;4.86;59.35
22031;BME280;11179;52.106;21.024;2024-02-15T06:20:34;101038.09;;;4.83;59.68
22031;BME280;11179;52.106;21.024;2024-02-15T06:23:00;101044.56;;;4.82;59.99
22031;BME280;11179;52.106;21.024;2024-02-15T06:25:27;101041.00;;;4.75;60.22
22031;BME280;11179;52.106;21.024;2024-02-15T06:27:52;101051.69;;;4.76;60.36
22031;BME280;11179;52.106;21.024;2024-02-15T06:30:23;101046.88;;;4.78;60.60
22031;BME280;11179;52.106;21.024;2024-02-15T06:33:07;101050.84;;;4.83;60.57
22031;BME280;11179;52.106;21.024;2024-02-15T06:35:51;101056.31;;;4.83;60.55
22031;BME280;11179;52.106;21.024;2024-02-15T06:38:35;101050.22;;;4.80;60.70
22031;BME280;11179;52.106;21.024;2024-02-15T06:41:18;101057.53;;;4.73;61.21
22031;BME280;11179;52.106;21.024;2024-02-15T06:43:44;101062.34;;;4.71;61.47
22031;BME280;11179;52.106;21.024;2024-02-15T06:46:09;101056.06;;;4.71;61.64
22031;BME280;11179;52.106;21.024;2024-02-15T06:48:36;101059.22;;;4.74;61.77
22031;BME280;11179;52.106;21.024;2024-02-15T06:51:02;101058.13;;;4.69;61.94
22031;BME280;11179;52.106;21.024;2024-02-15T06:53:29;101060.66;;;4.70;62.50
22031;BME280;11179;52.106;21.024;2024-02-15T06:55:55;101059.41;;;4.73;62.48
22031;BME280;11179;52.106;21.024;2024-02-15T06:58:21;101056.50;;;4.74;62.78
22031;BME280;11179;52.106;21.024;2024-02-15T07:00:48;101058.78;;;4.71;62.94
22031;BME280;11179;52.106;21.024;2024-02-15T07:03:14;101054.78;;;4.67;63.13
22031;BME280;11179;52.106;21.024;2024-02-15T07:05:41;101056.88;;;4.65;63.24
22031;BME280;11179;52.106;21.024;2024-02-15T07:08:07;101055.41;;;4.69;63.59
22031;BME280;11179;52.106;21.024;2024-02-15T07:10:37;101060.06;;;4.75;63.80
22031;BME280;11179;52.106;21.024;2024-02-15T07:13:04;101059.22;;;4.81;63.77
22031;BME280;11179;52.106;21.024;2024-02-15T07:15:29;101070.34;;;4.86;64.22
22031;BME280;11179;52.106;21.024;2024-02-15T07:17:57;101052.09;;;4.73;64.55
22031;BME280;11179;52.106;21.024;2024-02-15T07:20:23;101061.53;;;4.77;64.83
22031;BME280;11179;52.106;21.024;2024-02-15T07:22:48;101055.84;;;4.72;65.65
22031;BME280;11179;52.106;21.024;2024-02-15T07:25:14;101069.06;;;4.75;65.51
22031;BME280;11179;52.106;21.024;2024-02-15T07:27:39;101068.00;;;4.76;65.37
22031;BME280;11179;52.106;21.024;2024-02-15T07:30:05;101071.97;;;4.74;65.74
22031;BME280;11179;52.106;21.024;2024-02-15T07:32:33;101068.81;;;4.70;65.78
22031;BME280;11179;52.106;21.024;2024-02-15T07:35:00;101067.53;;;4.66;66.03
22031;BME280;11179;52.106;21.024;2024-02-15T07:37:26;101065.88;;;4.65;66.35
22031;BME280;11179;52.106;21.024;2024-02-15T07:39:52;101066.91;;;4.64;66.19
22031;BME280;11179;52.106;21.024;2024-02-15T07:42:17;101071.72;;;4.62;66.27
22031;BME280;11179;52.106;21.024;2024-02-15T07:44:42;101070.03;;;4.61;66.62
22031;BME280;11179;52.106;21.024;2024-02-15T07:47:08;101067.97;;;4.63;66.73
22031;BME280;11179;52.106;21.024;2024-02-15T07:49:35;101076.31;;;4.62;67.02
22031;BME280;11179;52.106;21.024;2024-02-15T07:52:01;101077.38;;;4.67;66.94
22031;BME280;11179;52.106;21.024;2024-02-15T07:54:29;101070.03;;;4.68;66.86
22031;BME280;11179;52.106;21.024;2024-02-15T07:56:56;101078.91;;;4.76;67.21
22031;BME280;11179;52.106;21.024;2024-02-15T07:59:21;101077.03;;;4.84;67.22
22031;BME280;11179;52.106;21.024;2024-02-15T08:01:46;101077.03;;;4.84;67.26
22031;BME280;11179;52.106;21.024;2024-02-15T08:04:15;101074.31;;;4.84;67.13
22031;BME280;11179;52.106;21.024;2024-02-15T08:06:40;101066.53;;;4.80;67.12
22031;BME280;11179;52.106;21.024;2024-02-15T08:09:06;101069.91;;;4.83;67.71
22031;BME280;11179;52.106;21.024;2024-02-15T08:11:32;101068.44;;;4.80;67.66
22031;BME280;11179;52.106;21.024;2024-02-15T08:13:57;101064.25;;;4.84;67.86
22031;BME280;11179;52.106;21.024;2024-02-15T08:16:25;101060.94;;;4.89;67.72
22031;BME280;11179;52.106;21.024;2024-02-15T08:18:52;101065.34;;;4.90;67.85
22031;BME280;11179;52.106;21.024;2024-02-15T08:21:26;101070.16;;;4.88;68.29
22031;BME280;11179;52.106;21.024;2024-02-15T08:23:52;101066.78;;;4.86;68.09
22031;BME280;11179;52.106;21.024;2024-02-15T08:26:17;101064.91;;;4.86;68.45
22031;BME280;11179;52.106;21.024;2024-02-15T08:28:43;101074.75;;;4.87;68.46
22031;BME280;11179;52.106;21.024;2024-02-15T08:31:08;101070.16;;;4.94;68.60
22031;BME280;11179;52.106;21.024;2024-02-15T08:33:35;101062.22;;;4.99;68.65
22031;BME280;11179;52.106;21.024;2024-02-15T08:36:01;101070.38;;;5.06;68.86
22031;BME280;11179;52.106;21.024;2024-02-15T08:38:27;101056.78;;;5.06;68.96
22031;BME280;11179;52.106;21.024;2024-02-15T08:40:53;101060.38;;;5.13;69.33
22031;BME280;11179;52.106;21.024;2024-02-15T08:43:18;101061.84;;;5.22;69.27
22031;BME280;11179;52.106;21.024;2024-02-15T08:45:44;101067.53;;;5.27;69.08
22031;BME280;11179;52.106;21.024;2024-02-15T08:48:09;101072.38;;;5.32;69.42
22031;BME280;11179;52.106;21.024;2024-02-15T08:50:35;101069.84;;;5.37;69.44
22031;BME280;11179;52.106;21.024;2024-02-15T08:53:01;101063.56;;;5.36;69.50
22031;BME280;11179;52.106;21.024;2024-02-15T08:55:30;101071.97;;;5.41;69.58
22031;BME280;11179;52.106;21.024;2024-02-15T08:57:56;101077.00;;;5.44;70.07
22031;BME280;11179;52.106;21.024;2024-02-15T09:00:21;101080.56;;;5.51;70.01
22031;BME280;11179;52.106;21.024;2024-02-15T09:02:47;101079.28;;;5.61;69.92
22031;BME280;11179;52.106;21.024;2024-02-15T09:05:13;101082.03;;;5.67;70.08
22031;BME280;11179;52.106;21.024;2024-02-15T09:07:42;101088.31;;;5.68;70.03
22031;BME280;11179;52.106;21.024;2024-02-15T09:10:09;101084.56;;;5.69;70.19
22031;BME280;11179;52.106;21.024;2024-02-15T09:12:39;101083.72;;;5.68;70.02
22031;BME280;11179;52.106;21.024;2024-02-15T09:15:09;101089.16;;;5.68;70.40
22031;BME280;11179;52.106;21.024;2024-02-15T09:17:36;101077.84;;;5.71;70.15
22031;BME280;11179;52.106;21.024;2024-02-15T09:20:08;101090.19;;;5.74;70.28
22031;BME280;11179;52.106;21.024;2024-02-15T09:22:49;101083.28;;;5.78;70.39
22031;BME280;11179;52.106;21.024;2024-02-15T09:25:15;101090.66;;;5.84;70.53
22031;BME280;11179;52.106;21.024;2024-02-15T09:27:41;101087.06;;;5.90;70.70
22031;BME280;11179;52.106;21.024;2024-02-15T09:30:07;101090.00;;;5.95;70.55
22031;BME280;11179;52.106;21.024;2024-02-15T09:32:43;101081.63;;;5.97;70.56
22031;BME280;11179;52.106;21.024;2024-02-15T09:35:11;101089.59;;;5.98;70.73
22031;BME280;11179;52.106;21.024;2024-02-15T09:37:48;101088.31;;;6.01;70.85
22031;BME280;11179;52.106;21.024;2024-02-15T09:40:14;101100.28;;;6.06;70.87
22031;BME280;11179;52.106;21.024;2024-02-15T09:42:42;101098.81;;;6.10;70.59
22031;BME280;11179;52.106;21.024;2024-02-15T09:45:14;101104.25;;;6.17;70.67
22031;BME280;11179;52.106;21.024;2024-02-15T09:47:45;101088.31;;;6.20;70.68
22031;BME280;11179;52.106;21.024;2024-02-15T09:50:12;101093.31;;;6.30;70.62
22031;BME280;11179;52.106;21.024;2024-02-15T09:52:59;101093.78;;;6.34;70.54
22031;BME280;11179;52.106;21.024;2024-02-15T09:55:27;101096.28;;;6.35;70.38
22031;BME280;11179;52.106;21.024;2024-02-15T09:57:54;101082.84;;;6.34;70.65
22031;BME280;11179;52.106;21.024;2024-02-15T10:00:20;101083.69;;;6.34;70.38
22031;BME280;11179;52.106;21.024;2024-02-15T10:02:53;101084.09;;;6.31;70.68
22031;BME280;11179;52.106;21.024;2024-02-15T10:05:18;101083.50;;;6.36;70.58
22031;BME280;11179;52.106;21.024;2024-02-15T10:07:45;101083.47;;;6.42;70.98
22031;BME280;11179;52.106;21.024;2024-02-15T10:12:47;101076.94;;;6.43;70.80
22031;BME280;11179;52.106;21.024;2024-02-15T10:15:34;101079.88;;;6.42;70.69
22031;BME280;11179;52.106;21.024;2024-02-15T10:18:05;101080.94;;;6.41;70.86
22031;BME280;11179;52.106;21.024;2024-02-15T10:20:32;101087.03;;;6.43;71.07
22031;BME280;11179;52.106;21.024;2024-02-15T10:25:26;101083.88;;;6.46;71.37
22031;BME280;11179;52.106;21.024;2024-02-15T10:28:01;101079.47;;;6.45;71.30
22031;BME280;11179;52.106;21.024;2024-02-15T10:30:26;101074.84;;;6.45;71.61
22031;BME280;11179;52.106;21.024;2024-02-15T10:32:52;101078.41;;;6.46;71.57
22031;BME280;11179;52.106;21.024;2024-02-15T10:35:21;101078.22;;;6.47;71.97
22031;BME280;11179;52.106;21.024;2024-02-15T10:37:48;101070.88;;;6.48;71.61
22031;BME280;11179;52.106;21.024;2024-02-15T10:40:17;101060.56;;;6.50;71.90
22031;BME280;11179;52.106;21.024;2024-02-15T10:42:46;101066.88;;;6.50;72.10
22031;BME280;11179;52.106;21.024;2024-02-15T10:45:12;101060.38;;;6.51;72.07
22031;BME280;11179;52.106;21.024;2024-02-15T10:47:39;101063.06;;;6.58;72.19
22031;BME280;11179;52.106;21.024;2024-02-15T10:50:06;101056.97;;;6.63;72.40
22031;BME280;11179;52.106;21.024;2024-02-15T10:52:33;101051.28;;;6.64;72.28
22031;BME280;11179;52.106;21.024;2024-02-15T10:55:03;101048.31;;;6.72;72.56
22031;BME280;11179;52.106;21.024;2024-02-15T10:57:31;101054.13;;;6.82;72.24
22031;BME280;11179;52.106;21.024;2024-02-15T10:59:58;101056.63;;;6.90;72.66
22031;BME280;11179;52.106;21.024;2024-02-15T11:02:42;101051.53;;;7.01;72.28
22031;BME280;11179;52.106;21.024;2024-02-15T11:05:09;101053.84;;;7.04;72.30
22031;BME280;11179;52.106;21.024;2024-02-15T11:07:36;101043.06;;;7.09;72.54
22031;BME280;11179;52.106;21.024;2024-02-15T11:10:03;101045.16;;;7.13;72.36
22031;BME280;11179;52.106;21.024;2024-02-15T11:12:34;101050.13;;;7.23;72.44
22031;BME280;11179;52.106;21.024;2024-02-15T11:15:00;101042.13;;;7.28;72.67
22031;BME280;11179;52.106;21.024;2024-02-15T11:20:05;101046.25;;;7.37;72.79
22031;BME280;11179;52.106;21.024;2024-02-15T11:22:34;101047.50;;;7.41;72.39
22031;BME280;11179;52.106;21.024;2024-02-15T11:25:04;101039.25;;;7.48;72.53
22031;BME280;11179;52.106;21.024;2024-02-15T11:27:42;101042.78;;;7.55;72.56
22031;BME280;11179;52.106;21.024;2024-02-15T11:30:07;101028.84;;;7.63;72.54
22031;BME280;11179;52.106;21.024;2024-02-15T11:35:25;101026.69;;;7.72;72.91
22031;BME280;11179;52.106;21.024;2024-02-15T11:37:51;101022.72;;;7.86;72.66
22031;BME280;11179;52.106;21.024;2024-02-15T11:40:25;101020.16;;;7.91;72.39
22031;BME280;11179;52.106;21.024;2024-02-15T11:42:59;101022.03;;;7.97;72.22
22031;BME280;11179;52.106;21.024;2024-02-15T11:45:25;101015.81;;;8.08;72.49
22031;BME280;11179;52.106;21.024;2024-02-15T11:47:53;101011.53;;;8.12;72.47
22031;BME280;11179;52.106;21.024;2024-02-15T11:50:21;101011.69;;;8.17;72.73
22031;BME280;11179;52.106;21.024;2024-02-15T11:52:48;101019.91;;;8.17;72.31
22031;BME280;11179;52.106;21.024;2024-02-15T11:55:18;101013.34;;;8.25;72.44
22031;BME280;11179;52.106;21.024;2024-02-15T11:57:57;101006.34;;;8.29;72.47
22031;BME280;11179;52.106;21.024;2024-02-15T12:00:49;101017.53;;;8.46;72.62
22031;BME280;11179;52.106;21.024;2024-02-15T12:03:54;101022.09;;;8.52;72.33
22031;BME280;11179;52.106;21.024;2024-02-15T12:06:38;101016.53;;;8.58;72.12
22031;BME280;11179;52.106;21.024;2024-02-15T12:09:23;101018.59;;;8.63;72.04
22031;BME280;11179;52.106;21.024;2024-02-15T12:12:09;101018.47;;;8.69;71.92
22031;BME280;11179;52.106;21.024;2024-02-15T12:15:00;101008.38;;;8.70;71.77
22031;BME280;11179;52.106;21.024;2024-02-15T12:17:44;101014.63;;;8.77;71.83
22031;BME280;11179;52.106;21.024;2024-02-15T12:20:28;101003.25;;;8.92;71.77
22031;BME280;11179;52.106;21.024;2024-02-15T12:22:54;101001.13;;;9.05;71.40
22031;BME280;11179;52.106;21.024;2024-02-15T12:25:20;101001.66;;;9.14;71.35
22031;BME280;11179;52.106;21.024;2024-02-15T12:27:54;101007.25;;;9.19;71.07
22031;BME280;11179;52.106;21.024;2024-02-15T12:30:20;101008.09;;;9.20;70.81
22031;BME280;11179;52.106;21.024;2024-02-15T12:32:47;101005.94;;;9.22;70.75
22031;BME280;11179;52.106;21.024;2024-02-15T12:35:22;101009.53;;;9.22;70.50
22031;BME280;11179;52.106;21.024;2024-02-15T12:40:30;101004.88;;;9.23;70.23
22031;BME280;11179;52.106;21.024;2024-02-15T12:42:56;101008.38;;;9.30;70.26
22031;BME280;11179;52.106;21.024;2024-02-15T12:45:25;101009.56;;;9.34;70.18
22031;BME280;11179;52.106;21.024;2024-02-15T12:47:53;101013.75;;;9.36;70.03
22031;BME280;11179;52.106;21.024;2024-02-15T12:50:21;101013.97;;;9.35;69.93
22031;BME280;11179;52.106;21.024;2024-02-15T12:52:50;101015.53;;;9.31;69.86
22031;BME280;11179;52.106;21.024;2024-02-15T12:55:16;101017.28;;;9.25;69.92
22031;BME280;11179;52.106;21.024;2024-02-15T12:57:44;101018.59;;;9.23;69.63
22031;BME280;11179;52.106;21.024;2024-02-15T13:00:11;101013.56;;;9.20;69.63
22031;BME280;11179;52.106;21.024;2024-02-15T13:02:43;101013.72;;;9.25;69.66
22031;BME280;11179;52.106;21.024;2024-02-15T13:05:08;101020.41;;;9.29;69.52
22031;BME280;11179;52.106;21.024;2024-02-15T13:07:35;101013.03;;;9.29;69.45